Peel, Arkansas
Current Conditions -  °F | °C
As of 5:15 PM on Thursday 27 Nov 2014 (Local Time) from KFLP Reporting Station
Clear Clear  
Wind Chill: 39°   Ceiling: Unl
Heat Index: 39°   Visibility: 10mi
Dew Point: 21°   Wind: 3mph
Humidity: 49%   Direction: 40°NE
Pressure: 30.44"   Gusts: NA
Location:  36.43°N, 92.77°W
Report Text: KFLP 272315Z AUTO 04003KT 10SM CLR 04/M06 A3044 RMK AO1
Loading
Personal Weather Stations






























Interactive Weather Map New forecast layout! Learn more

10-Day Weather Forecast

Advertisements
Track Severe Weather on mobile